sensor_id;sensor_type;location;lat;lon;timestamp;pressure;altitude;pressure_sealevel;temperature;humidity
1480;BME280;732;51.698;4.886;2022-09-12T00:01:34;101842.19;;;17.07;100.00
1480;BME280;732;51.698;4.886;2022-09-12T00:04:02;101844.00;;;17.14;100.00
1480;BME280;732;51.698;4.886;2022-09-12T00:06:35;101847.47;;;17.10;100.00
1480;BME280;732;51.698;4.886;2022-09-12T00:09:06;101806.75;;;16.79;100.00
1480;BME280;732;51.698;4.886;2022-09-12T00:11:36;101837.66;;;16.92;100.00
1480;BME280;732;51.698;4.886;2022-09-12T00:14:06;101846.56;;;17.03;100.00
1480;BME280;732;51.698;4.886;2022-09-12T00:16:37;101827.94;;;16.87;100.00
1480;BME280;732;51.698;4.886;2022-09-12T00:19:07;101836.78;;;16.96;100.00
1480;BME280;732;51.698;4.886;2022-09-12T00:21:37;101829.63;;;16.82;100.00
1480;BME280;732;51.698;4.886;2022-09-12T00:24:06;101830.47;;;16.73;100.00
1480;BME280;732;51.698;4.886;2022-09-12T00:26:35;101802.25;;;16.69;100.00
1480;BME280;732;51.698;4.886;2022-09-12T00:29:04;101845.53;;;16.88;100.00
1480;BME280;732;51.698;4.886;2022-09-12T00:31:32;101848.22;;;16.92;100.00
1480;BME280;732;51.698;4.886;2022-09-12T00:34:02;101827.88;;;16.79;100.00
1480;BME280;732;51.698;4.886;2022-09-12T00:36:31;101831.38;;;16.77;100.00
1480;BME280;732;51.698;4.886;2022-09-12T00:38:59;101834.84;;;16.71;100.00
1480;BME280;732;51.698;4.886;2022-09-12T00:41:31;101840.97;;;16.69;100.00
1480;BME280;732;51.698;4.886;2022-09-12T00:44:02;101804.66;;;16.47;100.00
1480;BME280;732;51.698;4.886;2022-09-12T00:46:36;101803.84;;;16.51;100.00
1480;BME280;732;51.698;4.886;2022-09-12T00:49:15;101825.13;;;16.70;100.00
1480;BME280;732;51.698;4.886;2022-09-12T00:51:48;101824.28;;;16.74;100.00
1480;BME280;732;51.698;4.886;2022-09-12T00:54:24;101812.75;;;16.65;100.00
1480;BME280;732;51.698;4.886;2022-09-12T00:56:58;101754.41;;;16.35;100.00
1480;BME280;732;51.698;4.886;2022-09-12T00:59:33;101810.19;;;16.68;100.00
1480;BME280;732;51.698;4.886;2022-09-12T01:02:03;101805.75;;;16.67;100.00
1480;BME280;732;51.698;4.886;2022-09-12T01:04:36;101795.13;;;16.59;100.00
1480;BME280;732;51.698;4.886;2022-09-12T01:07:08;101808.41;;;16.68;100.00
1480;BME280;732;51.698;4.886;2022-09-12T01:09:37;101799.56;;;16.65;100.00
1480;BME280;732;51.698;4.886;2022-09-12T01:12:07;101795.94;;;16.52;100.00
1480;BME280;732;51.698;4.886;2022-09-12T01:14:37;101783.53;;;16.45;100.00
1480;BME280;732;51.698;4.886;2022-09-12T01:17:06;101805.66;;;16.56;100.00
1480;BME280;732;51.698;4.886;2022-09-12T01:20:05;101807.38;;;16.51;100.00
1480;BME280;732;51.698;4.886;2022-09-12T01:26:00;101790.50;;;16.37;100.00
1480;BME280;732;51.698;4.886;2022-09-12T01:28:52;101793.13;;;16.36;100.00
1480;BME280;732;51.698;4.886;2022-09-12T01:31:33;101752.34;;;16.06;100.00
1480;BME280;732;51.698;4.886;2022-09-12T01:34:15;101792.31;;;16.46;100.00
1480;BME280;732;51.698;4.886;2022-09-12T01:36:55;101734.78;;;16.05;100.00
1480;BME280;732;51.698;4.886;2022-09-12T01:39:34;101798.41;;;16.37;100.00
1480;BME280;732;51.698;4.886;2022-09-12T01:42:14;101763.06;;;16.20;100.00
1480;BME280;732;51.698;4.886;2022-09-12T01:44:51;101763.97;;;16.23;100.00
1480;BME280;732;51.698;4.886;2022-09-12T01:47:29;101765.59;;;16.11;100.00
1480;BME280;732;51.698;4.886;2022-09-12T01:50:04;101737.41;;;16.04;100.00
1480;BME280;732;51.698;4.886;2022-09-12T01:52:41;101787.78;;;16.33;100.00
1480;BME280;732;51.698;4.886;2022-09-12T01:55:15;101735.63;;;16.01;100.00
1480;BME280;732;51.698;4.886;2022-09-12T01:57:51;101771.06;;;16.29;100.00
1480;BME280;732;51.698;4.886;2022-09-12T02:00:21;101760.41;;;16.20;100.00
1480;BME280;732;51.698;4.886;2022-09-12T02:02:56;101736.44;;;15.96;100.00
1480;BME280;732;51.698;4.886;2022-09-12T02:05:32;101775.41;;;16.22;100.00
1480;BME280;732;51.698;4.886;2022-09-12T02:08:05;101749.84;;;16.17;100.00
1480;BME280;732;51.698;4.886;2022-09-12T02:10:42;101765.69;;;16.20;100.00
1480;BME280;732;51.698;4.886;2022-09-12T02:13:16;101750.69;;;16.13;100.00
1480;BME280;732;51.698;4.886;2022-09-12T02:15:50;101775.44;;;16.27;100.00
1480;BME280;732;51.698;4.886;2022-09-12T02:18:21;101728.59;;;16.02;100.00
1480;BME280;732;51.698;4.886;2022-09-12T02:20:53;101739.25;;;16.12;100.00
1480;BME280;732;51.698;4.886;2022-09-12T02:23:27;101761.31;;;16.22;100.00
1480;BME280;732;51.698;4.886;2022-09-12T02:26:01;101761.34;;;16.25;100.00
1480;BME280;732;51.698;4.886;2022-09-12T02:28:35;101764.94;;;16.30;100.00
1480;BME280;732;51.698;4.886;2022-09-12T02:31:13;101716.25;;;15.96;100.00
1480;BME280;732;51.698;4.886;2022-09-12T02:33:52;101738.34;;;16.12;100.00
1480;BME280;732;51.698;4.886;2022-09-12T02:36:33;101729.44;;;15.98;100.00
1480;BME280;732;51.698;4.886;2022-09-12T02:39:06;101716.25;;;15.96;100.00
1480;BME280;732;51.698;4.886;2022-09-12T02:41:34;101682.72;;;15.83;100.00
1480;BME280;732;51.698;4.886;2022-09-12T02:44:04;101749.03;;;16.22;100.00
1480;BME280;732;51.698;4.886;2022-09-12T02:46:36;101746.38;;;16.21;100.00
1480;BME280;732;51.698;4.886;2022-09-12T02:49:08;101690.69;;;15.91;100.00
1480;BME280;732;51.698;4.886;2022-09-12T02:51:37;101708.41;;;16.07;100.00
1480;BME280;732;51.698;4.886;2022-09-12T02:54:06;101718.16;;;16.12;100.00
1480;BME280;732;51.698;4.886;2022-09-12T02:56:39;101712.88;;;16.14;100.00
1480;BME280;732;51.698;4.886;2022-09-12T02:59:10;101692.50;;;15.98;100.00
1480;BME280;732;51.698;4.886;2022-09-12T03:01:55;101728.06;;;16.39;100.00
1480;BME280;732;51.698;4.886;2022-09-12T03:04:45;101697.13;;;16.20;100.00
1480;BME280;732;51.698;4.886;2022-09-12T03:07:25;101730.75;;;16.44;100.00
1480;BME280;732;51.698;4.886;2022-09-12T03:10:04;101724.59;;;16.46;100.00
1480;BME280;732;51.698;4.886;2022-09-12T03:12:46;101727.22;;;16.45;100.00
1480;BME280;732;51.698;4.886;2022-09-12T03:15:29;101723.84;;;16.58;100.00
1480;BME280;732;51.698;4.886;2022-09-12T03:18:16;101720.31;;;16.57;100.00
1480;BME280;732;51.698;4.886;2022-09-12T03:20:55;101722.94;;;16.54;100.00
1480;BME280;732;51.698;4.886;2022-09-12T03:23:32;101709.75;;;16.51;100.00
1480;BME280;732;51.698;4.886;2022-09-12T03:26:05;101687.66;;;16.43;100.00
1480;BME280;732;51.698;4.886;2022-09-12T03:28:38;101716.84;;;16.60;100.00
1480;BME280;732;51.698;4.886;2022-09-12T03:31:12;101641.78;;;16.26;100.00
1480;BME280;732;51.698;4.886;2022-09-12T03:33:41;101659.47;;;16.38;100.00
1480;BME280;732;51.698;4.886;2022-09-12T03:36:17;101686.84;;;16.53;100.00
1480;BME280;732;51.698;4.886;2022-09-12T03:38:46;101714.28;;;16.72;100.00
1480;BME280;732;51.698;4.886;2022-09-12T03:41:14;101671.91;;;16.52;100.00
1480;BME280;732;51.698;4.886;2022-09-12T03:43:43;101665.69;;;16.47;100.00
1480;BME280;732;51.698;4.886;2022-09-12T03:46:12;101660.38;;;16.43;100.00
1480;BME280;732;51.698;4.886;2022-09-12T03:48:41;101686.00;;;16.54;100.00
1480;BME280;732;51.698;4.886;2022-09-12T03:51:10;101689.53;;;16.59;100.00
1480;BME280;732;51.698;4.886;2022-09-12T03:53:40;101694.88;;;16.65;100.00
1480;BME280;732;51.698;4.886;2022-09-12T03:56:12;101693.19;;;16.72;100.00
1480;BME280;732;51.698;4.886;2022-09-12T03:58:40;101676.34;;;16.56;100.00
1480;BME280;732;51.698;4.886;2022-09-12T04:01:10;101646.22;;;16.33;100.00
1480;BME280;732;51.698;4.886;2022-09-12T04:03:39;101693.06;;;16.58;100.00
1480;BME280;732;51.698;4.886;2022-09-12T04:06:10;101618.78;;;16.10;100.00
1480;BME280;732;51.698;4.886;2022-09-12T04:08:42;101632.06;;;16.22;100.00
1480;BME280;732;51.698;4.886;2022-09-12T04:11:13;101693.03;;;16.52;100.00
1480;BME280;732;51.698;4.886;2022-09-12T04:13:43;101685.91;;;16.45;100.00
1480;BME280;732;51.698;4.886;2022-09-12T04:16:14;101658.47;;;16.25;100.00
1480;BME280;732;51.698;4.886;2022-09-12T04:18:44;101685.91;;;16.45;100.00
1480;BME280;732;51.698;4.886;2022-09-12T04:21:16;101640.88;;;16.22;100.00
1480;BME280;732;51.698;4.886;2022-09-12T04:23:46;101657.66;;;16.35;100.00
1480;BME280;732;51.698;4.886;2022-09-12T04:26:16;101652.38;;;16.32;100.00
1480;BME280;732;51.698;4.886;2022-09-12T04:28:45;101664.78;;;16.45;100.00
1480;BME280;732;51.698;4.886;2022-09-12T04:31:17;101679.81;;;16.51;100.00
1480;BME280;732;51.698;4.886;2022-09-12T04:33:46;101627.69;;;16.25;100.00
1480;BME280;732;51.698;4.886;2022-09-12T04:36:16;101649.75;;;16.34;100.00
1480;BME280;732;51.698;4.886;2022-09-12T04:38:46;101678.09;;;16.59;100.00
1480;BME280;732;51.698;4.886;2022-09-12T04:41:17;101672.75;;;16.50;100.00
1480;BME280;732;51.698;4.886;2022-09-12T04:43:51;101681.56;;;16.53;100.00
1480;BME280;732;51.698;4.886;2022-09-12T04:46:20;101671.03;;;16.52;100.00
1480;BME280;732;51.698;4.886;2022-09-12T04:48:49;101680.72;;;16.54;100.00
1480;BME280;732;51.698;4.886;2022-09-12T04:51:25;101632.13;;;16.31;100.00
1480;BME280;732;51.698;4.886;2022-09-12T04:53:57;101625.94;;;16.26;100.00
1480;BME280;732;51.698;4.886;2022-09-12T04:56:27;101662.19;;;16.48;100.00
1480;BME280;732;51.698;4.886;2022-09-12T04:58:58;101657.78;;;16.47;100.00
1480;BME280;732;51.698;4.886;2022-09-12T05:01:28;101662.16;;;16.45;100.00
1480;BME280;732;51.698;4.886;2022-09-12T05:03:57;101655.97;;;16.43;100.00
1480;BME280;732;51.698;4.886;2022-09-12T05:06:28;101656.06;;;16.52;100.00
1480;BME280;732;51.698;4.886;2022-09-12T05:09:00;101634.81;;;16.39;100.00
1480;BME280;732;51.698;4.886;2022-09-12T05:11:31;101605.66;;;16.17;100.00
1480;BME280;732;51.698;4.886;2022-09-12T05:14:19;101679.88;;;16.61;100.00
1480;BME280;732;51.698;4.886;2022-09-12T05:16:48;101671.91;;;16.55;100.00
1480;BME280;732;51.698;4.886;2022-09-12T05:19:16;101681.56;;;16.49;100.00
1480;BME280;732;51.698;4.886;2022-09-12T05:21:45;101637.34;;;16.22;100.00
1480;BME280;732;51.698;4.886;2022-09-12T05:24:15;101685.94;;;16.48;100.00
1480;BME280;732;51.698;4.886;2022-09-12T05:26:43;101691.28;;;16.51;100.00
1480;BME280;732;51.698;4.886;2022-09-12T05:29:12;101683.22;;;16.38;100.00
1480;BME280;732;51.698;4.886;2022-09-12T05:31:40;101650.59;;;16.27;100.00
1480;BME280;732;51.698;4.886;2022-09-12T05:34:09;101689.47;;;16.49;100.00
1480;BME280;732;51.698;4.886;2022-09-12T05:36:38;101658.50;;;16.30;100.00
1480;BME280;732;51.698;4.886;2022-09-12T05:39:07;101686.81;;;16.47;100.00
1480;BME280;732;51.698;4.886;2022-09-12T05:41:37;101683.22;;;16.41;100.00
1480;BME280;732;51.698;4.886;2022-09-12T05:44:09;101672.66;;;16.38;100.00
1480;BME280;732;51.698;4.886;2022-09-12T05:46:40;101683.22;;;16.39;100.00
1480;BME280;732;51.698;4.886;2022-09-12T05:49:10;101651.41;;;16.21;100.00
1480;BME280;732;51.698;4.886;2022-09-12T05:51:42;101654.06;;;16.22;100.00
1480;BME280;732;51.698;4.886;2022-09-12T05:54:15;101678.78;;;16.38;100.00
1480;BME280;732;51.698;4.886;2022-09-12T05:56:46;101648.78;;;16.21;100.00
1480;BME280;732;51.698;4.886;2022-09-12T05:59:18;101686.69;;;16.35;100.00
1480;BME280;732;51.698;4.886;2022-09-12T06:01:47;101684.22;;;16.50;100.00
1480;BME280;732;51.698;4.886;2022-09-12T06:04:16;101685.94;;;16.48;100.00
1480;BME280;732;51.698;4.886;2022-09-12T06:06:45;101679.84;;;16.55;100.00
1480;BME280;732;51.698;4.886;2022-09-12T06:09:16;101660.25;;;16.31;100.00
1480;BME280;732;51.698;4.886;2022-09-12T06:11:46;101691.28;;;16.59;100.00
1480;BME280;732;51.698;4.886;2022-09-12T06:14:16;101689.50;;;16.50;100.00
1480;BME280;732;51.698;4.886;2022-09-12T06:16:45;101694.81;;;16.61;100.00
1480;BME280;732;51.698;4.886;2022-09-12T06:19:16;101682.53;;;16.60;100.00
1480;BME280;732;51.698;4.886;2022-09-12T06:21:45;101641.00;;;16.36;100.00
1480;BME280;732;51.698;4.886;2022-09-12T06:24:14;101687.81;;;16.63;100.00
1480;BME280;732;51.698;4.886;2022-09-12T06:26:45;101655.09;;;16.41;100.00
1480;BME280;732;51.698;4.886;2022-09-12T06:29:14;101657.75;;;16.46;100.00
1480;BME280;732;51.698;4.886;2022-09-12T06:31:44;101685.16;;;16.60;100.00
1480;BME280;732;51.698;4.886;2022-09-12T06:34:14;101657.72;;;16.40;100.00
1480;BME280;732;51.698;4.886;2022-09-12T06:36:44;101640.03;;;16.31;100.00
1480;BME280;732;51.698;4.886;2022-09-12T06:39:16;101694.88;;;16.65;100.00
1480;BME280;732;51.698;4.886;2022-09-12T06:41:47;101686.00;;;16.53;100.00
1480;BME280;732;51.698;4.886;2022-09-12T06:44:18;101699.22;;;16.59;100.00
1480;BME280;732;51.698;4.886;2022-09-12T06:46:47;101670.16;;;16.53;100.00
1480;BME280;732;51.698;4.886;2022-09-12T06:49:15;101665.69;;;16.47;100.00
1480;BME280;732;51.698;4.886;2022-09-12T06:51:44;101696.63;;;16.66;100.00
1480;BME280;732;51.698;4.886;2022-09-12T06:54:13;101653.34;;;16.42;100.00
1480;BME280;732;51.698;4.886;2022-09-12T06:56:45;101692.34;;;16.80;100.00
1480;BME280;732;51.698;4.886;2022-09-12T06:59:14;101642.03;;;16.55;100.00
1480;BME280;732;51.698;4.886;2022-09-12T07:01:42;101659.75;;;16.75;100.00
1480;BME280;732;51.698;4.886;2022-09-12T07:04:11;101682.81;;;17.03;100.00
1480;BME280;732;51.698;4.886;2022-09-12T07:06:41;101662.50;;;16.96;100.00
1480;BME280;732;51.698;4.886;2022-09-12T07:09:12;101679.34;;;17.18;100.00
1480;BME280;732;51.698;4.886;2022-09-12T07:11:42;101687.28;;;17.21;100.00
1480;BME280;732;51.698;4.886;2022-09-12T07:14:14;101632.56;;;16.93;100.00
1480;BME280;732;51.698;4.886;2022-09-12T07:16:42;101684.63;;;17.19;100.00
1480;BME280;732;51.698;4.886;2022-09-12T07:19:11;101683.81;;;17.28;100.00
1480;BME280;732;51.698;4.886;2022-09-12T07:21:39;101681.25;;;17.49;100.00
1480;BME280;732;51.698;4.886;2022-09-12T07:24:09;101683.09;;;17.64;100.00
1480;BME280;732;51.698;4.886;2022-09-12T07:26:38;101683.94;;;17.63;100.00
1480;BME280;732;51.698;4.886;2022-09-12T07:29:15;101656.63;;;17.70;100.00
1480;BME280;732;51.698;4.886;2022-09-12T07:32:04;101653.13;;;17.83;100.00
1480;BME280;732;51.698;4.886;2022-09-12T07:34:34;101603.75;;;17.59;100.00
1480;BME280;732;51.698;4.886;2022-09-12T07:37:03;101685.81;;;18.04;100.00
1480;BME280;732;51.698;4.886;2022-09-12T07:39:32;101688.44;;;18.06;100.00
1480;BME280;732;51.698;4.886;2022-09-12T07:42:00;101683.16;;;18.13;100.00
1480;BME280;732;51.698;4.886;2022-09-12T07:44:30;101663.75;;;18.18;100.00
1480;BME280;732;51.698;4.886;2022-09-12T07:46:58;101685.81;;;18.32;100.00
1480;BME280;732;51.698;4.886;2022-09-12T07:49:27;101688.47;;;18.53;100.00
1480;BME280;732;51.698;4.886;2022-09-12T07:51:56;101653.16;;;18.28;100.00
1480;BME280;732;51.698;4.886;2022-09-12T07:54:24;101697.31;;;18.59;100.00
1480;BME280;732;51.698;4.886;2022-09-12T07:56:53;101692.91;;;18.61;100.00
1480;BME280;732;51.698;4.886;2022-09-12T07:59:21;101688.50;;;18.59;100.00
1480;BME280;732;51.698;4.886;2022-09-12T08:02:12;101698.16;;;18.81;100.00
1480;BME280;732;51.698;4.886;2022-09-12T08:04:44;101692.84;;;18.93;100.00
1480;BME280;732;51.698;4.886;2022-09-12T08:07:13;101692.78;;;19.22;100.00
1480;BME280;732;51.698;4.886;2022-09-12T08:09:43;101622.00;;;19.31;100.00
1480;BME280;732;51.698;4.886;2022-09-12T08:12:11;101629.63;;;19.93;100.00
1480;BME280;732;51.698;4.886;2022-09-12T08:14:40;101589.47;;;20.35;100.00
1480;BME280;732;51.698;4.886;2022-09-12T08:17:08;101661.88;;;21.34;100.00
1480;BME280;732;51.698;4.886;2022-09-12T08:19:38;101619.28;;;21.39;100.00
1480;BME280;732;51.698;4.886;2022-09-12T08:22:06;101631.38;;;21.61;100.00
1480;BME280;732;51.698;4.886;2022-09-12T08:24:35;101647.47;;;22.13;100.00
1480;BME280;732;51.698;4.886;2022-09-12T08:27:05;101642.84;;;22.24;100.00
1480;BME280;732;51.698;4.886;2022-09-12T08:29:33;101627.25;;;22.51;100.00
1480;BME280;732;51.698;4.886;2022-09-12T08:32:02;101640.13;;;22.75;100.00
1480;BME280;732;51.698;4.886;2022-09-12T08:34:31;101637.41;;;22.80;100.00
1480;BME280;732;51.698;4.886;2022-09-12T08:37:01;101633.16;;;23.13;100.00
1480;BME280;732;51.698;4.886;2022-09-12T08:39:30;101625.34;;;23.46;100.00
1480;BME280;732;51.698;4.886;2022-09-12T08:42:01;101625.03;;;23.60;100.00
1480;BME280;732;51.698;4.886;2022-09-12T08:44:59;101604.66;;;23.56;100.00
1480;BME280;732;51.698;4.886;2022-09-12T08:47:31;101592.34;;;23.50;100.00
1480;BME280;732;51.698;4.886;2022-09-12T08:50:11;101619.63;;;24.01;100.00
1480;BME280;732;51.698;4.886;2022-09-12T08:52:53;101622.75;;;24.18;100.00
1480;BME280;732;51.698;4.886;2022-09-12T08:55:31;101613.59;;;23.93;100.00
1480;BME280;732;51.698;4.886;2022-09-12T08:58:08;101566.84;;;23.76;100.00
1480;BME280;732;51.698;4.886;2022-09-12T09:00:47;101589.38;;;23.99;100.00
1480;BME280;732;51.698;4.886;2022-09-12T09:07:13;101579.97;;;24.20;100.00
1480;BME280;732;51.698;4.886;2022-09-12T09:10:02;101580.59;;;24.29;100.00
1480;BME280;732;51.698;4.886;2022-09-12T09:12:41;101571.56;;;24.35;100.00
1480;BME280;732;51.698;4.886;2022-09-12T09:15:28;101585.28;;;24.53;100.00
1480;BME280;732;51.698;4.886;2022-09-12T09:18:03;101573.53;;;24.60;100.00
1480;BME280;732;51.698;4.886;2022-09-12T09:20:39;101584.78;;;24.73;100.00
1480;BME280;732;51.698;4.886;2022-09-12T09:23:13;101583.00;;;24.74;100.00
1480;BME280;732;51.698;4.886;2022-09-12T09:25:55;101576.94;;;24.66;100.00
1480;BME280;732;51.698;4.886;2022-09-12T09:28:30;101573.44;;;24.63;100.00
1480;BME280;732;51.698;4.886;2022-09-12T09:31:01;101575.72;;;24.79;100.00
1480;BME280;732;51.698;4.886;2022-09-12T09:33:33;101563.44;;;24.72;100.00
1480;BME280;732;51.698;4.886;2022-09-12T09:36:13;101562.25;;;24.82;100.00
1480;BME280;732;51.698;4.886;2022-09-12T09:38:48;101543.72;;;24.76;100.00
1480;BME280;732;51.698;4.886;2022-09-12T09:41:41;101565.44;;;25.23;100.00
1480;BME280;732;51.698;4.886;2022-09-12T09:44:13;101548.09;;;24.78;100.00
1480;BME280;732;51.698;4.886;2022-09-12T09:46:41;101556.88;;;25.12;100.00
1480;BME280;732;51.698;4.886;2022-09-12T09:49:12;101534.13;;;24.98;100.00
1480;BME280;732;51.698;4.886;2022-09-12T09:51:42;101540.13;;;25.06;100.00
1480;BME280;732;51.698;4.886;2022-09-12T09:54:18;101528.16;;;25.17;100.00
1480;BME280;732;51.698;4.886;2022-09-12T09:56:49;101529.16;;;25.15;100.00
1480;BME280;732;51.698;4.886;2022-09-12T09:59:25;101524.22;;;25.30;100.00
1480;BME280;732;51.698;4.886;2022-09-12T10:01:56;101537.31;;;25.38;100.00
1480;BME280;732;51.698;4.886;2022-09-12T10:04:30;101511.59;;;25.34;100.00
1480;BME280;732;51.698;4.886;2022-09-12T10:07:04;101522.63;;;25.52;100.00
1480;BME280;732;51.698;4.886;2022-09-12T10:09:35;101536.38;;;25.68;100.00
1480;BME280;732;51.698;4.886;2022-09-12T10:12:25;101497.34;;;25.33;100.00
1480;BME280;732;51.698;4.886;2022-09-12T10:14:57;101509.44;;;25.46;100.00
1480;BME280;732;51.698;4.886;2022-09-12T10:17:29;101483.78;;;25.39;100.00
1480;BME280;732;51.698;4.886;2022-09-12T10:20:01;101516.84;;;25.91;100.00
1480;BME280;732;51.698;4.886;2022-09-12T10:22:49;101517.72;;;25.91;100.00
1480;BME280;732;51.698;4.886;2022-09-12T10:25:18;101439.44;;;25.57;100.00
1480;BME280;732;51.698;4.886;2022-09-12T10:27:55;101506.25;;;26.14;100.00
1480;BME280;732;51.698;4.886;2022-09-12T10:30:25;101495.53;;;26.14;100.00
1480;BME280;732;51.698;4.886;2022-09-12T10:33:05;101454.38;;;25.90;100.00
1480;BME280;732;51.698;4.886;2022-09-12T10:35:48;101442.25;;;26.05;100.00
1480;BME280;732;51.698;4.886;2022-09-12T10:38:22;101471.34;;;26.63;100.00
1480;BME280;732;51.698;4.886;2022-09-12T10:40:57;101453.94;;;26.75;100.00
1480;BME280;732;51.698;4.886;2022-09-12T10:43:33;101416.91;;;26.61;100.00
1480;BME280;732;51.698;4.886;2022-09-12T10:46:27;101472.34;;;27.07;100.00
1480;BME280;732;51.698;4.886;2022-09-12T10:49:13;101437.38;;;27.30;100.00
1480;BME280;732;51.698;4.886;2022-09-12T10:51:47;101451.00;;;27.47;100.00
1480;BME280;732;51.698;4.886;2022-09-12T10:54:18;101426.91;;;27.46;100.00
1480;BME280;732;51.698;4.886;2022-09-12T10:57:17;101468.50;;;27.57;100.00
1480;BME280;732;51.698;4.886;2022-09-12T11:00:09;101455.06;;;27.57;100.00
1480;BME280;732;51.698;4.886;2022-09-12T11:02:50;101461.69;;;27.90;100.00
1480;BME280;732;51.698;4.886;2022-09-12T11:05:40;101468.94;;;27.88;100.00
1480;BME280;732;51.698;4.886;2022-09-12T11:08:26;101468.13;;;27.86;100.00
1480;BME280;732;51.698;4.886;2022-09-12T11:11:06;101468.75;;;27.93;100.00
1480;BME280;732;51.698;4.886;2022-09-12T11:13:52;101435.41;;;27.77;100.00
1480;BME280;732;51.698;4.886;2022-09-12T11:16:37;101467.97;;;28.11;100.00
1480;BME280;732;51.698;4.886;2022-09-12T11:19:34;101461.03;;;28.05;100.00
1480;BME280;732;51.698;4.886;2022-09-12T11:22:18;101464.47;;;28.29;100.00
1480;BME280;732;51.698;4.886;2022-09-12T11:25:12;101425.34;;;28.41;100.00
1480;BME280;732;51.698;4.886;2022-09-12T11:27:54;101419.59;;;28.50;100.00
1480;BME280;732;51.698;4.886;2022-09-12T11:30:35;101401.69;;;28.49;100.00
1480;BME280;732;51.698;4.886;2022-09-12T11:33:24;101437.72;;;29.02;100.00
1480;BME280;732;51.698;4.886;2022-09-12T11:35:57;101445.50;;;29.27;100.00
1480;BME280;732;51.698;4.886;2022-09-12T11:38:50;101439.16;;;29.09;100.00
1480;BME280;732;51.698;4.886;2022-09-12T11:41:25;101441.47;;;29.35;100.00
1480;BME280;732;51.698;4.886;2022-09-12T11:44:01;101410.66;;;29.41;100.00
1480;BME280;732;51.698;4.886;2022-09-12T11:46:36;101443.84;;;29.41;100.00
1480;BME280;732;51.698;4.886;2022-09-12T11:49:18;101445.19;;;29.50;100.00
1480;BME280;732;51.698;4.886;2022-09-12T11:51:54;101441.16;;;29.41;100.00
1480;BME280;732;51.698;4.886;2022-09-12T11:54:29;101425.47;;;29.32;100.00
1480;BME280;732;51.698;4.886;2022-09-12T11:57:14;101418.91;;;29.55;100.00
1480;BME280;732;51.698;4.886;2022-09-12T11:59:48;101429.41;;;29.78;100.00
1480;BME280;732;51.698;4.886;2022-09-12T12:02:25;101451.50;;;30.19;100.00
1480;BME280;732;51.698;4.886;2022-09-12T12:05:19;101445.97;;;29.87;100.00
1480;BME280;732;51.698;4.886;2022-09-12T12:07:53;101407.63;;;29.30;100.00
1480;BME280;732;51.698;4.886;2022-09-12T12:10:31;101423.44;;;29.54;100.00
1480;BME280;732;51.698;4.886;2022-09-12T12:13:01;101434.25;;;29.71;100.00
1480;BME280;732;51.698;4.886;2022-09-12T12:15:36;101405.38;;;29.90;100.00
1480;BME280;732;51.698;4.886;2022-09-12T12:18:14;101417.09;;;29.89;100.00
1480;BME280;732;51.698;4.886;2022-09-12T12:20:45;101413.44;;;29.56;100.00
1480;BME280;732;51.698;4.886;2022-09-12T12:23:26;101428.28;;;29.82;100.00
1480;BME280;732;51.698;4.886;2022-09-12T12:25:58;101410.31;;;29.82;100.00
1480;BME280;732;51.698;4.886;2022-09-12T12:28:58;101418.00;;;29.90;100.00
1480;BME280;732;51.698;4.886;2022-09-12T12:31:27;101351.06;;;29.47;100.00
1480;BME280;732;51.698;4.886;2022-09-12T12:34:25;101364.09;;;29.73;100.00
1480;BME280;732;51.698;4.886;2022-09-12T12:36:55;101415.72;;;30.32;100.00
1480;BME280;732;51.698;4.886;2022-09-12T12:39:58;101415.81;;;29.96;100.00
1480;BME280;732;51.698;4.886;2022-09-12T12:43:27;101407.22;;;29.90;100.00
1480;BME280;732;51.698;4.886;2022-09-12T12:46:10;101379.22;;;29.58;100.00
1480;BME280;732;51.698;4.886;2022-09-12T12:49:09;101398.91;;;29.77;100.00
1480;BME280;732;51.698;4.886;2022-09-12T12:52:00;101369.63;;;29.36;100.00
1480;BME280;732;51.698;4.886;2022-09-12T12:54:55;101392.38;;;29.81;100.00
1480;BME280;732;51.698;4.886;2022-09-12T12:57:35;101368.34;;;29.94;100.00
1480;BME280;732;51.698;4.886;2022-09-12T13:00:27;101354.13;;;30.07;100.00
1480;BME280;732;51.698;4.886;2022-09-12T13:03:01;101345.25;;;30.05;100.00
1480;BME280;732;51.698;4.886;2022-09-12T13:05:40;101369.28;;;30.26;100.00
1480;BME280;732;51.698;4.886;2022-09-12T13:08:27;101386.25;;;30.45;100.00
1480;BME280;732;51.698;4.886;2022-09-12T13:11:00;101383.28;;;30.49;100.00
1480;BME280;732;51.698;4.886;2022-09-12T13:13:35;101377.03;;;30.49;100.00
1480;BME280;732;51.698;4.886;2022-09-12T13:16:07;101321.03;;;30.37;100.00
1480;BME280;732;51.698;4.886;2022-09-12T13:18:41;101352.31;;;30.56;100.00
1480;BME280;732;51.698;4.886;2022-09-12T13:21:14;101331.59;;;30.41;100.00
1480;BME280;732;51.698;4.886;2022-09-12T13:23:58;101325.22;;;30.58;100.00
1480;BME280;732;51.698;4.886;2022-09-12T13:26:31;101344.13;;;30.73;100.00
1480;BME280;732;51.698;4.886;2022-09-12T13:29:11;101341.75;;;30.52;100.00
1480;BME280;732;51.698;4.886;2022-09-12T13:31:42;101334.81;;;30.15;100.00
1480;BME280;732;51.698;4.886;2022-09-12T13:34:17;101336.88;;;30.43;100.00
1480;BME280;732;51.698;4.886;2022-09-12T13:37:04;101321.25;;;30.17;100.00
1480;BME280;732;51.698;4.886;2022-09-12T13:39:45;101325.66;;;30.50;100.00
1480;BME280;732;51.698;4.886;2022-09-12T13:42:37;101350.84;;;30.51;100.00
1480;BME280;732;51.698;4.886;2022-09-12T13:45:13;101348.88;;;30.53;100.00
1480;BME280;732;51.698;4.886;2022-09-12T13:47:46;101333.16;;;30.45;100.00
1480;BME280;732;51.698;4.886;2022-09-12T13:50:19;101341.94;;;30.64;100.00
1480;BME280;732;51.698;4.886;2022-09-12T13:52:53;101325.66;;;30.50;100.00
1480;BME280;732;51.698;4.886;2022-09-12T13:55:28;101314.34;;;30.59;100.00
1480;BME280;732;51.698;4.886;2022-09-12T13:58:01;101289.41;;;30.70;100.00